createdAt,value
2019-05-16T00:00:52.343Z,1.7
2019-05-16T00:01:52.483Z,1.9
2019-05-16T00:02:52.620Z,2.5
2019-05-16T00:03:52.719Z,1.5
2019-05-16T00:04:52.890Z,3.3
2019-05-16T00:05:54.485Z,3.1
2019-05-16T00:10:53.548Z,1.4
2019-05-16T00:11:53.515Z,2.8
2019-05-16T00:15:54.082Z,2.5
2019-05-16T00:16:55.058Z,1.6
2019-05-16T00:17:54.215Z,1.9
2019-05-16T00:18:54.174Z,1.6
2019-05-16T00:19:54.299Z,1.5
2019-05-16T00:20:54.407Z,2.7
2019-05-16T00:21:54.564Z,1.7
2019-05-16T00:22:54.559Z,2
2019-05-16T00:23:54.695Z,2.5
2019-05-16T00:24:54.687Z,1.8
2019-05-16T00:25:54.814Z,1.2
2019-05-16T00:26:54.987Z,5.3
2019-05-16T00:29:55.126Z,4.3
2019-05-16T00:30:55.286Z,3.8
2019-05-16T00:31:55.396Z,2.8
2019-05-16T00:32:55.537Z,1.9
2019-05-16T00:33:57.778Z,2.6
2019-05-16T00:34:58.312Z,2.6
2019-05-16T00:36:03.222Z,2.2
2019-05-16T00:36:58.143Z,1.5
2019-05-16T00:37:58.912Z,1.6
2019-05-16T00:38:57.813Z,2
2019-05-16T00:39:58.612Z,1.4
2019-05-16T00:40:59.015Z,1.8
2019-05-16T00:41:58.336Z,4.7
2019-05-16T00:42:58.826Z,1.6
2019-05-16T00:43:57.821Z,2.5
2019-05-16T00:44:58.302Z,1.5
2019-05-16T00:45:58.887Z,3.5
2019-05-16T00:46:58.231Z,3.3
2019-05-16T00:47:58.442Z,2
2019-05-16T00:49:58.171Z,2.1
2019-05-16T00:50:58.385Z,2.4
2019-05-16T00:51:58.602Z,2
2019-05-16T00:52:58.887Z,2.2
2019-05-16T00:53:58.938Z,1.8
2019-05-16T00:54:58.043Z,2.8
2019-05-16T00:55:58.454Z,2.2
2019-05-16T00:56:58.041Z,1.9
2019-05-16T00:59:59.155Z,1.4
2019-05-16T01:00:59.269Z,1.7
2019-05-16T01:01:58.809Z,2.2
2019-05-16T01:02:58.722Z,3.3
2019-05-16T01:03:58.729Z,2.5
2019-05-16T01:04:59.012Z,2.2
2019-05-16T01:05:58.816Z,2.5
2019-05-16T01:07:01.668Z,1.9
2019-05-16T01:09:59.362Z,2.2
2019-05-16T01:10:59.469Z,1.7
2019-05-16T01:11:59.588Z,2.4
2019-05-16T01:12:59.702Z,2.7
2019-05-16T01:13:59.842Z,1.6
2019-05-16T01:14:59.976Z,1.9
2019-05-16T01:16:00.080Z,2.2
2019-05-16T01:17:00.192Z,2.4
2019-05-16T01:20:00.607Z,2.2
2019-05-16T01:21:00.739Z,2.5
2019-05-16T01:22:00.855Z,1.1
2019-05-16T01:43:03.119Z,1.7
2019-05-16T01:44:03.236Z,4.9
2019-05-16T01:55:04.291Z,1.6
2019-05-16T01:56:04.398Z,3.7
2019-05-16T01:57:04.513Z,3.1
2019-05-16T02:03:05.103Z,3.1
2019-05-16T02:04:05.218Z,1.6
2019-05-16T02:05:05.396Z,2.2
2019-05-16T02:06:05.335Z,2
2019-05-16T02:07:05.424Z,2.8
2019-05-16T02:14:06.264Z,1.8
2019-05-16T02:15:07.826Z,2
2019-05-16T02:16:08.265Z,1.6
2019-05-16T02:17:08.665Z,2.1
2019-05-16T02:20:08.600Z,2.6
2019-05-16T02:21:08.061Z,3.4
2019-05-16T02:22:08.877Z,2.9
2019-05-16T02:23:08.439Z,2.1
2019-05-16T02:24:08.812Z,2.3
2019-05-16T02:25:08.474Z,1.7
2019-05-16T02:26:07.943Z,1.5
2019-05-16T02:27:09.502Z,1.7
2019-05-16T02:28:07.771Z,2
2019-05-16T02:29:10.278Z,1.5
2019-05-16T02:30:12.335Z,5.3
2019-05-16T02:31:11.864Z,3.1
2019-05-16T02:32:11.463Z,1.2
2019-05-16T02:33:11.534Z,2.6
2019-05-16T02:34:11.791Z,1.4
2019-05-16T02:35:11.638Z,2.2
2019-05-16T02:36:10.907Z,1.8
2019-05-16T02:37:19.862Z,3.4
2019-05-16T02:38:11.333Z,2.5
2019-05-16T02:39:11.141Z,2.7
2019-05-16T02:40:11.889Z,1.7
2019-05-16T02:41:10.598Z,3.7
2019-05-16T02:42:11.800Z,3.3
2019-05-16T02:43:12.423Z,2.5
2019-05-16T02:44:11.970Z,2.7
2019-05-16T02:45:11.063Z,2
2019-05-16T02:46:11.866Z,2.3
2019-05-16T02:47:10.897Z,1.7
2019-05-16T02:48:10.932Z,4.3
2019-05-16T02:49:11.515Z,2
2019-05-16T02:50:12.123Z,6.6
2019-05-16T02:51:11.314Z,2
2019-05-16T02:52:10.771Z,2.2
2019-05-16T02:53:12.745Z,2.1
2019-05-16T02:54:11.389Z,2.5
2019-05-16T02:55:11.572Z,2.9
2019-05-16T02:56:12.346Z,2
2019-05-16T02:58:11.414Z,3.7
2019-05-16T02:59:11.833Z,2.3
2019-05-16T03:00:12.502Z,1.6
2019-05-16T03:01:11.145Z,1.5
2019-05-16T03:02:11.482Z,2.2
2019-05-16T03:03:11.904Z,2
2019-05-16T03:04:12.289Z,2.3
2019-05-16T03:05:12.159Z,1.7
2019-05-16T03:06:12.337Z,3.5
2019-05-16T03:07:17.199Z,2
2019-05-16T03:09:11.769Z,2.5
2019-05-16T03:10:11.811Z,2.4
2019-05-16T03:11:12.080Z,3
2019-05-16T03:12:12.089Z,1.8
2019-05-16T03:13:12.029Z,2.9
2019-05-16T03:14:12.134Z,3
2019-05-16T03:15:12.244Z,3.5
2019-05-16T03:16:12.354Z,1.7
2019-05-16T03:20:12.543Z,2.8
2019-05-16T03:21:12.574Z,1.6
2019-05-16T03:22:12.633Z,1.6
2019-05-16T03:23:12.660Z,1.6
2019-05-16T03:24:12.714Z,1.7
2019-05-16T03:25:12.767Z,1.8
2019-05-16T03:26:12.836Z,1.5
2019-05-16T03:30:16.070Z,3.8
2019-05-16T03:31:15.369Z,4.2
2019-05-16T03:32:14.623Z,2.4
2019-05-16T03:33:16.764Z,2.5
2019-05-16T03:34:16.582Z,2.2
2019-05-16T03:35:15.949Z,2.9
2019-05-16T03:36:15.494Z,1.6
2019-05-16T03:38:13.272Z,2.8
2019-05-16T03:39:13.320Z,2.5
2019-05-16T03:40:13.376Z,2.9
2019-05-16T03:41:13.446Z,1.5
2019-05-16T03:42:13.497Z,3.7
2019-05-16T03:43:13.583Z,2
2019-05-16T03:44:13.658Z,1.1
2019-05-16T03:45:13.684Z,2.7
2019-05-16T03:46:13.721Z,2.3
2019-05-16T03:50:13.894Z,2.2
2019-05-16T03:51:13.937Z,2.1
2019-05-16T03:52:14.977Z,1.5
2019-05-16T03:53:14.086Z,2.5
2019-05-16T03:54:14.146Z,2.7
2019-05-16T05:55:21.611Z,1.6
2019-05-16T05:56:21.694Z,1.9
2019-05-16T05:57:21.753Z,2.2
2019-05-16T05:58:21.889Z,4.6
2019-05-16T05:59:21.870Z,1.7
2019-05-16T06:00:22.032Z,2.5
2019-05-16T06:01:22.282Z,3.2
2019-05-16T06:02:22.270Z,2.6
2019-05-16T06:03:23.180Z,2.8
2019-05-16T06:04:23.419Z,2.9
2019-05-16T06:05:22.568Z,2.2
2019-05-16T06:06:22.637Z,2.6
2019-05-16T06:07:22.626Z,2
2019-05-16T06:08:22.619Z,2.9
2019-05-16T06:09:28.189Z,1.9
2019-05-16T06:11:22.928Z,3.1
2019-05-16T06:12:23.925Z,2.3
2019-05-16T06:13:22.909Z,2.4
2019-05-16T06:14:23.086Z,2.8
2019-05-16T06:17:23.285Z,2.9
2019-05-16T06:18:23.279Z,2.3
2019-05-16T06:19:23.279Z,3.4
2019-05-16T06:20:23.320Z,2.5
2019-05-16T06:21:23.374Z,2.8
2019-05-16T09:11:41.259Z,3.6
2019-05-16T09:12:31.632Z,3.5
2019-05-16T09:13:30.813Z,2.4
2019-05-16T09:14:35.112Z,3.4
2019-05-16T09:15:31.993Z,4.6
2019-05-16T09:16:31.024Z,4.3
2019-05-16T09:17:31.013Z,3.1
2019-05-16T09:18:40.537Z,2.8
2019-05-16T09:19:32.329Z,4.4
2019-05-16T09:20:31.491Z,4.6
2019-05-16T09:21:31.511Z,3.5
2019-05-16T09:22:31.501Z,2.7
2019-05-16T09:23:31.498Z,3
2019-05-16T09:24:31.544Z,3.9
2019-05-16T09:25:31.521Z,3.5
2019-05-16T09:26:31.553Z,3.2
2019-05-16T09:27:31.565Z,3.6
2019-05-16T09:28:31.570Z,4.4
2019-05-16T09:29:31.578Z,5
2019-05-16T09:30:31.575Z,3.6
2019-05-16T09:31:31.625Z,2.9
2019-05-16T09:32:31.590Z,3.6
2019-05-16T09:33:31.753Z,2.8
2019-05-16T09:34:31.762Z,3
2019-05-16T09:35:31.763Z,3.2
2019-05-16T09:36:31.814Z,5.1
2019-05-16T09:37:31.854Z,3.5
2019-05-16T09:38:31.845Z,3.7
2019-05-16T09:39:31.853Z,3.4
2019-05-16T09:40:31.863Z,4.4
2019-05-16T09:41:44.867Z,3.4
2019-05-16T09:43:32.059Z,4.3
2019-05-16T09:44:32.201Z,6
2019-05-16T09:45:32.205Z,4.7
2019-05-16T09:46:32.201Z,9.4
2019-05-16T09:47:32.217Z,5.5
2019-05-16T09:48:32.217Z,3.6
2019-05-16T09:49:32.201Z,4.5
2019-05-16T09:50:32.379Z,3.4
2019-05-16T09:53:32.422Z,3
2019-05-16T09:54:32.415Z,4.1
2019-05-16T09:55:32.431Z,2.7
2019-05-16T09:56:32.427Z,4
2019-05-16T09:57:32.478Z,3.7
2019-05-16T09:58:32.535Z,3.8
2019-05-16T09:59:32.536Z,3.5
2019-05-16T10:00:32.567Z,4.2
2019-05-16T10:01:32.588Z,3
2019-05-16T10:16:32.903Z,4.9
2019-05-16T10:20:33.251Z,5
2019-05-16T10:21:33.249Z,3.8
2019-05-16T10:22:33.242Z,4.8
2019-05-16T10:23:33.311Z,2.9
2019-05-16T10:26:33.458Z,4.3
2019-05-16T10:27:33.460Z,6.4
2019-05-16T10:28:33.512Z,2.9
2019-05-16T10:29:33.533Z,4.8
2019-05-16T10:30:33.516Z,4.4
2019-05-16T10:31:42.248Z,6
2019-05-16T10:32:36.451Z,5.8
2019-05-16T10:33:38.645Z,3.4
2019-05-16T10:34:36.936Z,4.6
2019-05-16T10:35:37.195Z,7
2019-05-16T10:36:37.279Z,3.8
2019-05-16T10:37:37.453Z,5.2
2019-05-16T10:38:37.413Z,5.2
2019-05-16T10:39:37.254Z,5.1
2019-05-16T10:40:36.849Z,3.2
2019-05-16T10:41:37.051Z,5
2019-05-16T10:42:37.896Z,2.9
2019-05-16T10:43:37.028Z,3.8
2019-05-16T10:44:38.317Z,4.7
2019-05-16T10:45:36.849Z,4
2019-05-16T10:46:37.602Z,3.3
2019-05-16T10:47:37.053Z,4.5
2019-05-16T10:48:37.539Z,5.7
2019-05-16T10:49:38.633Z,2.6
2019-05-16T10:50:36.936Z,3.4
2019-05-16T10:51:37.470Z,4.4
2019-05-16T10:52:36.750Z,6.2
2019-05-16T10:54:00.391Z,5.9
2019-05-16T10:54:37.033Z,4.7
2019-05-16T10:55:36.757Z,3.9
2019-05-16T10:56:39.929Z,4.7
2019-05-16T10:57:37.750Z,3.8
2019-05-16T10:58:47.265Z,6.1
2019-05-16T10:59:57.587Z,3.5
2019-05-16T11:01:04.914Z,4
2019-05-16T11:01:36.930Z,4.8
2019-05-16T11:02:37.086Z,4.4
2019-05-16T11:03:37.108Z,4.8
2019-05-16T11:04:50.595Z,3.9
2019-05-16T11:05:39.542Z,4.2
2019-05-16T11:06:37.387Z,4.1
2019-05-16T11:07:37.048Z,4.9
2019-05-16T11:08:37.129Z,4.5
2019-05-16T11:09:39.355Z,6.3
2019-05-16T11:10:37.541Z,4.2
2019-05-16T11:11:36.911Z,3.4
2019-05-16T11:12:46.983Z,5.4
2019-05-16T11:13:37.798Z,3.1
2019-05-16T11:14:37.153Z,5.8
2019-05-16T11:15:37.460Z,4.2
2019-05-16T11:16:37.024Z,4.5
2019-05-16T11:17:37.334Z,4.3
2019-05-16T11:18:37.571Z,5.1
2019-05-16T11:19:37.253Z,3.6
2019-05-16T11:20:37.424Z,3.1
2019-05-16T11:21:37.741Z,3.5
2019-05-16T11:22:37.278Z,2.7
2019-05-16T11:23:37.177Z,3.4
2019-05-16T11:24:37.793Z,4
2019-05-16T11:25:37.332Z,5.6
2019-05-16T11:26:37.466Z,5.2
2019-05-16T11:27:37.750Z,3.7
2019-05-16T11:28:37.788Z,3.3
2019-05-16T11:29:37.812Z,6.6
2019-05-16T11:30:37.909Z,3.6
2019-05-16T11:31:37.803Z,4.5
2019-05-16T11:32:37.861Z,4.8
2019-05-16T11:33:37.830Z,3.5
2019-05-16T11:34:38.163Z,3.4
2019-05-16T11:35:38.308Z,3.9
2019-05-16T11:36:37.965Z,3.7
2019-05-16T11:37:38.144Z,4.8
2019-05-16T11:38:38.165Z,4.1
2019-05-16T11:39:38.131Z,4.1
2019-05-16T11:40:38.320Z,2.6
2019-05-16T11:41:38.315Z,4.1
2019-05-16T11:42:38.298Z,4.4
2019-05-16T11:43:38.476Z,5
2019-05-16T11:44:38.476Z,2.9
2019-05-16T11:45:38.568Z,4.7
2019-05-16T11:46:38.675Z,3.4
2019-05-16T11:47:38.642Z,4.5
2019-05-16T11:48:38.626Z,4.4
2019-05-16T11:49:38.780Z,3.9
2019-05-16T11:50:38.998Z,3.6
2019-05-16T11:51:39.042Z,3.6
2019-05-16T11:52:40.770Z,3.4
2019-05-16T11:53:40.074Z,4.2
2019-05-16T11:54:39.062Z,4.8
2019-05-16T11:55:51.508Z,3.5
2019-05-16T11:56:40.089Z,3.2
2019-05-16T11:57:39.075Z,4.9
2019-05-16T11:58:39.072Z,4.9
2019-05-16T11:59:39.081Z,5.2
2019-05-16T12:00:39.107Z,4.3
2019-05-16T12:01:39.092Z,4.8
2019-05-16T12:02:42.602Z,3.2
2019-05-16T12:03:40.266Z,4.1
2019-05-16T12:04:39.525Z,5.2
2019-05-16T12:05:39.560Z,3.6
2019-05-16T12:06:39.596Z,4.2
2019-05-16T12:07:44.165Z,4.6
2019-05-16T12:08:40.604Z,5.4
2019-05-16T12:09:46.769Z,3.3
2019-05-16T12:10:40.750Z,7.5
2019-05-16T12:11:39.823Z,5
2019-05-16T12:12:39.832Z,3.7
2019-05-16T12:13:39.812Z,4.7
2019-05-16T12:14:39.968Z,4.9
2019-05-16T12:15:39.959Z,4.2
2019-05-16T12:16:39.996Z,3.6
2019-05-16T12:17:39.992Z,3.1
2019-05-16T12:18:39.978Z,4.4
2019-05-16T12:19:43.846Z,4.5
2019-05-16T12:20:41.197Z,3.8
2019-05-16T12:21:40.395Z,4.1
2019-05-16T12:22:40.403Z,5.6
2019-05-16T12:23:40.444Z,4.4
2019-05-16T12:24:41.389Z,4.5
2019-05-16T12:25:41.567Z,5.4
2019-05-16T12:26:40.754Z,6.8
2019-05-16T12:27:42.067Z,3.6
2019-05-16T12:28:41.766Z,4.7
2019-05-16T12:29:40.925Z,3.9
2019-05-16T12:30:40.903Z,4.7
2019-05-16T12:31:54.093Z,4.2
2019-05-16T12:32:42.065Z,3.7
2019-05-16T12:33:41.228Z,4
2019-05-16T12:34:41.218Z,4.7
2019-05-16T12:35:41.259Z,3.7
2019-05-16T12:36:41.417Z,3.5
2019-05-16T12:37:41.407Z,4
2019-05-16T12:38:41.417Z,4.3
2019-05-16T12:39:41.428Z,4.2
2019-05-16T12:40:41.454Z,5.6
2019-05-16T12:41:41.856Z,4.5
2019-05-16T12:42:41.509Z,4.4
2019-05-16T12:43:48.463Z,4.9
2019-05-16T12:44:42.629Z,4.9
2019-05-16T12:45:41.813Z,3.6
2019-05-16T12:46:41.833Z,4.2
2019-05-16T12:47:41.852Z,4
2019-05-16T12:48:41.884Z,3.5
2019-05-16T12:49:41.877Z,4.4
2019-05-16T12:50:41.896Z,3.9
2019-05-16T12:51:41.945Z,3.8
2019-05-16T12:52:42.023Z,3.7
2019-05-16T12:53:42.004Z,6.1
2019-05-16T12:54:42.160Z,8.9
2019-05-16T12:55:42.342Z,6.4
2019-05-16T12:56:42.362Z,4.7
2019-05-16T12:57:42.409Z,5.4
2019-05-16T12:58:42.731Z,5.4
2019-05-16T12:59:49.894Z,5.1
2019-05-16T13:00:43.969Z,5.6
2019-05-16T13:01:42.819Z,3.7
2019-05-16T13:02:43.020Z,4.1
2019-05-16T13:03:43.067Z,3.9
2019-05-16T13:04:43.065Z,5
2019-05-16T13:05:43.050Z,4.2
2019-05-16T13:06:43.221Z,3.2
2019-05-16T13:07:43.265Z,3.1
2019-05-16T13:08:43.372Z,3.7
2019-05-16T13:09:43.367Z,5.8
2019-05-16T13:10:43.382Z,4.5
2019-05-16T13:11:43.386Z,5.3
2019-05-16T13:12:43.438Z,3.5
2019-05-16T13:13:59.345Z,4.9
2019-05-16T13:14:44.479Z,4.3
2019-05-16T13:15:43.642Z,4.4
2019-05-16T13:16:43.648Z,3.5
2019-05-16T13:17:43.685Z,4.3
2019-05-16T13:18:43.681Z,3.7
2019-05-16T13:19:45.441Z,4.8
2019-05-16T13:20:46.705Z,3.9
2019-05-16T13:21:46.916Z,5.2
2019-05-16T13:22:47.292Z,5.5
2019-05-16T13:23:46.699Z,3.7
2019-05-16T13:24:47.661Z,3.4
2019-05-16T13:25:47.827Z,5.6
2019-05-16T13:26:47.494Z,5.8
2019-05-16T13:27:47.434Z,4
2019-05-16T13:28:47.501Z,6.5
2019-05-16T13:29:47.641Z,4.7
2019-05-16T13:30:47.084Z,5.5
2019-05-16T13:31:47.787Z,5.3
2019-05-16T13:32:45.357Z,5.5
2019-05-16T13:33:44.551Z,3.6
2019-05-16T13:34:44.550Z,4.1
2019-05-16T13:35:46.962Z,5.4
2019-05-16T13:36:47.393Z,6.1
2019-05-16T13:37:47.644Z,5.6
2019-05-16T13:38:47.975Z,6.2
2019-05-16T13:39:47.561Z,4.3
2019-05-16T13:40:45.953Z,5.9
2019-05-16T13:41:44.951Z,4.2
2019-05-16T13:42:47.721Z,5.7
2019-05-16T13:43:46.013Z,6.1
2019-05-16T13:44:47.087Z,4.7
2019-05-16T13:45:47.068Z,5.4
2019-05-16T13:46:46.748Z,4
2019-05-16T13:47:48.091Z,4.3
2019-05-16T13:48:46.308Z,4.3
2019-05-16T13:49:45.378Z,4.7
2019-05-16T13:50:47.298Z,3.8
2019-05-16T13:51:46.519Z,6.3
2019-05-16T13:52:47.948Z,3.5
2019-05-16T13:53:47.145Z,5.7
2019-05-16T13:54:45.698Z,4.1
2019-05-16T13:55:45.705Z,3.4
2019-05-16T13:56:48.260Z,4.9
2019-05-16T13:57:46.701Z,5.2
2019-05-16T13:58:46.948Z,5.8
2019-05-16T13:59:47.004Z,6.7
2019-05-16T14:00:47.977Z,7.3
2019-05-16T14:01:47.023Z,4.3
2019-05-16T14:02:46.240Z,5.6
2019-05-16T14:03:48.174Z,4.8
2019-05-16T14:04:47.280Z,4.9
2019-05-16T14:05:47.723Z,4.2
2019-05-16T14:06:47.641Z,4.8
2019-05-16T14:07:47.925Z,3.7
2019-05-16T14:08:47.441Z,5.9
2019-05-16T14:09:47.106Z,4.3
2019-05-16T14:10:48.439Z,3.9
2019-05-16T14:11:47.529Z,4.5
2019-05-16T14:12:49.700Z,5
2019-05-16T14:13:47.667Z,3.7
2019-05-16T14:14:47.816Z,3.9
2019-05-16T14:15:47.892Z,3.6
2019-05-16T14:16:47.064Z,4.7
2019-05-16T14:17:48.771Z,4.3
2019-05-16T14:18:47.886Z,3.7
2019-05-16T14:19:47.859Z,4.6
2019-05-16T14:20:47.129Z,3.5
2019-05-16T14:21:47.907Z,4.3
2019-05-16T14:22:47.161Z,3.9
2019-05-16T14:23:53.126Z,3.3
2019-05-16T14:24:48.462Z,3.7
2019-05-16T14:25:48.251Z,3.9
2019-05-16T14:26:48.296Z,5.2
2019-05-16T14:27:47.681Z,5
2019-05-16T14:28:49.189Z,5.4
2019-05-16T14:29:47.815Z,4.2
2019-05-16T14:30:47.773Z,4.6
2019-05-16T14:31:47.745Z,4.5
2019-05-16T14:32:50.695Z,4
2019-05-16T14:33:48.956Z,4.4
2019-05-16T14:34:51.306Z,4.1
2019-05-16T14:35:49.114Z,6.2
2019-05-16T14:36:48.175Z,4.5
2019-05-16T14:37:48.141Z,8.4
2019-05-16T14:38:48.119Z,4.9
2019-05-16T14:39:48.821Z,5.7
2019-05-16T14:40:50.256Z,6
2019-05-16T14:41:49.367Z,6.7
2019-05-16T14:42:48.344Z,4.8
2019-05-16T14:43:48.495Z,7.1
2019-05-16T14:45:03.425Z,3.5
2019-05-16T14:45:49.851Z,6
2019-05-16T14:46:48.848Z,8.1
2019-05-16T14:47:48.830Z,4.7
2019-05-16T14:48:48.888Z,3.3
2019-05-16T14:49:49.199Z,4
2019-05-16T14:50:48.904Z,6.4
2019-05-16T14:51:48.934Z,5.3
2019-05-16T14:52:48.916Z,7
2019-05-16T14:53:48.911Z,5.8
2019-05-16T14:54:49.087Z,4.3
2019-05-16T14:55:49.184Z,5.7
2019-05-16T14:56:49.190Z,5.8
2019-05-16T14:57:49.184Z,4.3
2019-05-16T14:58:49.354Z,6.4
2019-05-16T14:59:49.348Z,6.5
2019-05-16T15:00:49.540Z,6.4
2019-05-16T15:01:49.404Z,8.1
2019-05-16T15:02:49.400Z,4.7
2019-05-16T15:03:49.399Z,4.3
2019-05-16T15:04:49.796Z,5.6
2019-05-16T15:05:49.412Z,6.3
2019-05-16T15:06:49.627Z,9.2
2019-05-16T15:07:49.661Z,5.7
2019-05-16T15:08:49.694Z,5
2019-05-16T15:09:49.673Z,4.8
2019-05-16T15:10:49.852Z,7.1
2019-05-16T15:11:49.871Z,5.8
2019-05-16T15:12:49.879Z,5.1
2019-05-16T15:13:49.887Z,4.3
2019-05-16T15:14:49.909Z,4.7
2019-05-16T15:15:49.894Z,5.3
2019-05-16T15:16:51.928Z,5.4
2019-05-16T15:17:50.928Z,5.6
2019-05-16T15:18:49.921Z,5.4
2019-05-16T15:19:49.915Z,4.9
2019-05-16T15:20:50.094Z,5.6
2019-05-16T15:21:49.982Z,4.2
2019-05-16T15:22:49.979Z,4.3
2019-05-16T15:23:50.128Z,4.8
2019-05-16T15:24:50.165Z,3.5
2019-05-16T15:25:50.168Z,4.6
2019-05-16T15:28:51.010Z,4.1
2019-05-16T15:29:51.347Z,3.9
2019-05-16T15:30:50.346Z,4.9
2019-05-16T15:31:50.388Z,3.9
2019-05-16T15:32:50.418Z,4
2019-05-16T15:33:50.409Z,3.7
2019-05-16T15:34:50.629Z,4
2019-05-16T15:35:50.674Z,3.7
2019-05-16T15:36:50.704Z,5.7
2019-05-16T15:37:50.749Z,3.5
2019-05-16T15:38:50.761Z,4.1
2019-05-16T15:39:54.007Z,4.2
2019-05-16T15:40:51.778Z,3.8
2019-05-16T15:41:50.821Z,4
2019-05-16T15:42:50.837Z,5.1
2019-05-16T15:43:50.870Z,5.8
2019-05-16T15:44:50.885Z,4.6
2019-05-16T15:45:53.091Z,4.4
2019-05-16T15:46:52.035Z,4.9
2019-05-16T15:47:51.061Z,4.2
2019-05-16T15:48:51.056Z,5.1
2019-05-16T15:49:51.072Z,5.9
2019-05-16T15:50:51.124Z,5.9
2019-05-16T15:55:51.258Z,5.4
2019-05-16T15:56:51.273Z,5.6
2019-05-16T15:57:51.379Z,5.3
2019-05-16T15:58:51.383Z,5.3
2019-05-16T15:59:51.359Z,5.3
2019-05-16T16:00:51.396Z,6.7
2019-05-16T16:01:51.394Z,9.2
2019-05-16T16:02:51.445Z,21.700001
2019-05-16T16:03:51.445Z,17.1
2019-05-16T16:04:51.455Z,11.9
2019-05-16T16:05:51.511Z,5.2
2019-05-16T16:06:51.505Z,4.3
2019-05-16T16:07:51.544Z,6
2019-05-16T16:08:51.588Z,6.1
2019-05-16T16:09:51.568Z,4.9
2019-05-16T16:10:51.616Z,7.2
2019-05-16T16:11:51.621Z,7.5
2019-05-16T16:12:51.646Z,6.2
2019-05-16T16:13:51.681Z,7.7
2019-05-16T16:14:51.680Z,5.3
2019-05-16T16:15:54.536Z,5.4
2019-05-16T16:16:52.823Z,5.6
2019-05-16T16:17:51.844Z,5.4
2019-05-16T16:18:51.860Z,6.8
2019-05-16T16:19:51.881Z,5
2019-05-16T16:20:51.903Z,7
2019-05-16T16:21:51.906Z,5.8
2019-05-16T16:22:51.922Z,6.1
2019-05-16T16:23:51.953Z,6.3
2019-05-16T16:24:51.942Z,5.3
2019-05-16T16:25:52.029Z,6.2
2019-05-16T16:26:51.935Z,8.2
2019-05-16T16:27:52.046Z,5.2
2019-05-16T16:28:52.035Z,6.3
2019-05-16T16:29:52.038Z,5.3
2019-05-16T16:30:52.049Z,5.9
2019-05-16T16:31:52.065Z,7.4
2019-05-16T16:32:52.093Z,6.9
2019-05-16T16:33:52.142Z,5.9
2019-05-16T16:34:52.145Z,5.2
2019-05-16T16:35:52.276Z,7.2
2019-05-16T16:36:52.438Z,5.7
2019-05-16T16:37:52.474Z,4.9
2019-05-16T16:38:52.536Z,5.6
2019-05-16T16:39:52.561Z,4.7
2019-05-16T16:40:52.589Z,5.8
2019-05-16T16:41:52.629Z,7.9
2019-05-16T16:42:52.697Z,4.8
2019-05-16T16:43:52.735Z,5.7
2019-05-16T16:44:52.754Z,5.7
2019-05-16T16:46:04.272Z,5.8
2019-05-16T16:46:53.763Z,7.5
2019-05-16T16:47:52.751Z,6.3
2019-05-16T16:48:52.802Z,6.5
2019-05-16T16:49:52.809Z,4.8
2019-05-16T16:50:52.839Z,5.9
2019-05-16T16:51:52.837Z,6.2
2019-05-16T16:52:52.891Z,8.3
2019-05-16T16:53:52.946Z,6.1
2019-05-16T16:54:52.970Z,5.2
2019-05-16T16:55:52.975Z,6.8
2019-05-16T16:56:53.972Z,5.9
2019-05-16T16:57:55.839Z,5.6
2019-05-16T16:58:53.971Z,6
2019-05-16T16:59:53.147Z,5.4
2019-05-16T17:00:53.142Z,6.3
2019-05-16T17:01:53.125Z,5.9
2019-05-16T17:03:02.797Z,5.4
2019-05-16T17:03:56.894Z,5.3
2019-05-16T17:04:54.608Z,5.6
2019-05-16T17:05:53.595Z,7
2019-05-16T17:06:53.582Z,6.3
2019-05-16T17:07:53.763Z,5.8
2019-05-16T17:08:53.815Z,7.5
2019-05-16T17:09:56.234Z,6.1
2019-05-16T17:10:57.275Z,6.7
2019-05-16T17:11:57.048Z,5.9
2019-05-16T17:12:57.336Z,5.9
2019-05-16T17:13:56.543Z,7.7
2019-05-16T17:14:56.942Z,6.1
2019-05-16T17:15:56.818Z,6.6
2019-05-16T17:16:57.352Z,6.5
2019-05-16T17:17:57.348Z,7.1
2019-05-16T17:18:56.820Z,7.3
2019-05-16T17:19:56.690Z,6.9
2019-05-16T17:20:56.959Z,5.9
2019-05-16T17:22:11.016Z,7.3
2019-05-16T17:22:57.193Z,6.9
2019-05-16T17:23:56.893Z,9.7
2019-05-16T17:24:56.644Z,8.4
2019-05-16T17:25:56.603Z,6.3
2019-05-16T17:26:57.723Z,7.4
2019-05-16T17:27:57.236Z,6.4
2019-05-16T17:28:57.092Z,7.2
2019-05-16T17:29:56.824Z,8.2
2019-05-16T17:30:56.769Z,8.4
2019-05-16T17:32:05.486Z,7.4
2019-05-16T17:32:56.620Z,7.9
2019-05-16T17:33:57.684Z,8.8
2019-05-16T17:34:56.591Z,8.2
2019-05-16T17:35:55.680Z,9.8
2019-05-16T17:36:57.119Z,8.7
2019-05-16T17:37:57.304Z,8.4
2019-05-16T17:38:57.079Z,7.8
2019-05-16T17:39:57.105Z,8.3
2019-05-16T17:40:56.931Z,8.3
2019-05-16T17:41:57.933Z,9.1
2019-05-16T17:42:57.125Z,7.9
2019-05-16T17:43:56.430Z,8.7
2019-05-16T17:44:56.626Z,9.7
2019-05-16T17:45:57.466Z,6.9
2019-05-16T17:46:57.741Z,9
2019-05-16T17:47:57.151Z,7.2
2019-05-16T17:48:57.016Z,10
2019-05-16T17:49:56.719Z,10.2
2019-05-16T17:50:57.092Z,8.4
2019-05-16T17:51:57.001Z,10.1
2019-05-16T17:52:57.798Z,12.4
2019-05-16T17:53:57.235Z,10.4
2019-05-16T17:54:57.325Z,12
2019-05-16T17:55:57.465Z,9
2019-05-16T17:56:57.497Z,10.7
2019-05-16T17:57:57.593Z,10.6
2019-05-16T17:58:57.680Z,9.3
2019-05-16T17:59:57.687Z,8.5
2019-05-16T18:01:00.347Z,11.9
2019-05-16T18:01:59.030Z,8.6
2019-05-16T18:02:57.995Z,10.4
2019-05-16T18:03:58.009Z,9.9
2019-05-16T18:04:58.154Z,9.5
2019-05-16T18:05:58.158Z,11.1
2019-05-16T18:06:58.289Z,9.8
2019-05-16T18:07:58.381Z,9.5
2019-05-16T18:08:58.460Z,8.7
2019-05-16T18:09:58.451Z,12.4
2019-05-16T18:10:58.528Z,9
2019-05-16T18:11:58.561Z,13.9
2019-05-16T18:12:58.548Z,12.8
2019-05-16T18:13:58.726Z,10.8
2019-05-16T18:14:58.730Z,9.6
2019-05-16T18:15:58.718Z,10.7
2019-05-16T18:17:02.023Z,12.5
2019-05-16T18:17:59.800Z,11.9
2019-05-16T18:18:58.986Z,10.3
2019-05-16T18:19:58.964Z,8.6
2019-05-16T18:21:02.072Z,9.3
2019-05-16T18:22:00.214Z,10.8
2019-05-16T18:22:59.351Z,12.5
2019-05-16T18:23:59.507Z,10.2
2019-05-16T18:24:59.586Z,9
2019-05-16T18:26:02.061Z,11.6
2019-05-16T18:27:00.763Z,10.2
2019-05-16T18:27:59.802Z,12.6
2019-05-16T18:28:59.807Z,13.1
2019-05-16T18:42:00.529Z,10.9
2019-05-16T18:43:00.634Z,9.1
2019-05-16T19:56:07.189Z,16.1
2019-05-16T19:57:07.433Z,17.9
2019-05-16T19:58:06.774Z,16.700001
2019-05-16T19:59:06.713Z,17.200001
2019-05-16T20:00:06.343Z,17
2019-05-16T20:01:06.396Z,16.4
2019-05-16T20:02:07.629Z,17.1
2019-05-16T20:03:07.955Z,17.1
2019-05-16T20:04:06.589Z,16.299999
2019-05-16T20:05:06.701Z,16.799999
2019-05-16T20:06:07.461Z,17.1
2019-05-16T20:07:07.372Z,17
2019-05-16T20:08:07.114Z,17.6
2019-05-16T20:09:07.220Z,17.9
2019-05-16T20:10:09.467Z,16.799999
2019-05-16T20:11:08.136Z,17.1
2019-05-16T20:12:07.772Z,17.700001
2019-05-16T20:13:07.917Z,19.9
2019-05-16T20:14:07.523Z,18.4
2019-05-16T20:15:11.359Z,17.700001
2019-05-16T20:16:08.525Z,17.5
2019-05-16T20:17:07.612Z,17.299999
2019-05-16T20:20:07.878Z,18.5
2019-05-16T20:21:07.937Z,17.6
2019-05-16T20:22:07.989Z,18.6
2019-05-16T20:23:08.066Z,18.799999
2019-05-16T20:24:08.117Z,18.299999
2019-05-16T20:25:08.349Z,18.700001
2019-05-16T20:26:08.264Z,19
2019-05-16T20:27:08.331Z,18.9
2019-05-16T20:28:09.065Z,19.299999
2019-05-16T20:29:08.392Z,19
2019-05-16T20:30:08.450Z,19.6
2019-05-16T20:31:08.525Z,19
2019-05-16T20:32:11.042Z,19.6
2019-05-16T20:33:09.652Z,19.5
2019-05-16T20:34:09.363Z,20
2019-05-16T20:35:09.109Z,19.200001
2019-05-16T20:36:09.397Z,20
2019-05-16T20:37:09.227Z,22.4
2019-05-16T20:38:08.947Z,20.4
2019-05-16T20:39:09.022Z,20
2019-05-16T20:40:12.119Z,20.9
2019-05-16T20:41:10.189Z,22.5
2019-05-16T20:42:09.234Z,23.6
2019-05-16T20:43:09.307Z,22.799999
2019-05-16T20:44:09.369Z,23.6
2019-05-16T20:45:09.463Z,23.5
2019-05-16T20:46:09.602Z,26.5
2019-05-16T20:47:09.647Z,25.299999
2019-05-16T20:48:14.791Z,24.799999
2019-05-16T20:50:09.806Z,25.4
2019-05-16T20:51:10.003Z,23.9
2019-05-16T20:52:09.925Z,22.299999
2019-05-16T20:53:10.004Z,22.799999
2019-05-16T20:54:10.070Z,22.6
2019-05-16T20:55:10.139Z,22.4
2019-05-16T20:56:10.178Z,23.5
2019-05-16T20:57:10.285Z,22.6
2019-05-16T20:58:10.353Z,21.200001
2019-05-16T21:09:11.111Z,24.200001
2019-05-16T21:10:11.202Z,24.700001
2019-05-16T21:29:12.592Z,26
2019-05-16T21:30:12.680Z,27.5
2019-05-16T21:31:12.716Z,26.9
2019-05-16T21:32:12.849Z,26.200001
2019-05-16T21:33:12.946Z,26.1
2019-05-16T22:11:17.189Z,28.5
2019-05-16T22:12:17.294Z,30.9
2019-05-16T22:13:15.667Z,28.700001
2019-05-16T22:14:17.049Z,28.299999
2019-05-16T22:15:17.189Z,31.5
2019-05-16T22:16:17.521Z,29
2019-05-16T22:17:17.014Z,29.700001
2019-05-16T22:18:16.992Z,30.1
2019-05-16T22:19:16.522Z,29.6
2019-05-16T22:20:16.606Z,31
2019-05-16T22:21:16.687Z,30.9
2019-05-16T22:22:16.554Z,31.200001
2019-05-16T22:23:17.286Z,29.5
2019-05-16T22:24:17.371Z,30.700001
2019-05-16T22:25:16.799Z,31.9
2019-05-16T22:31:16.843Z,31.5
2019-05-16T22:32:16.923Z,31.5
2019-05-16T22:33:17.843Z,31.9
2019-05-16T22:36:17.389Z,30.4
2019-05-16T22:37:17.345Z,31.1
2019-05-16T22:41:17.451Z,33.200001
2019-05-16T22:42:17.728Z,32.5
2019-05-16T22:43:17.552Z,31.700001
2019-05-16T22:44:17.799Z,32.200001
2019-05-16T22:45:17.765Z,31.200001
2019-05-16T22:46:17.980Z,32
2019-05-16T22:47:17.683Z,34.299999
2019-05-16T22:48:17.723Z,32.400002
2019-05-16T22:51:17.905Z,33.700001
2019-05-16T22:52:17.946Z,33.5
2019-05-16T22:53:18.005Z,32.900002
2019-05-16T22:54:18.056Z,32.099998
2019-05-16T22:55:18.106Z,31.6
2019-05-16T22:56:18.172Z,32.200001